Time;durP1;ratioP1;P1;durP2;ratioP2;P2;SDS_P1;SDS_P2;PMS_P1;PMS_P2;Temp;Humidity;BMP_temperature;BMP_pressure;BME280_temperature;BME280_humidity;BME280_pressure;Samples;Min_cycle;Max_cycle;Signal;HPM_P1;HPM_P2
2021/09/15 00:01:39;;;;;;;12.20;10.73;;;14.40;99.90;;;;;;5052630;28;20489;-84
2021/09/15 00:04:05;;;;;;;13.90;11.00;;;14.30;99.90;;;;;;5070226;28;20409;-83
2021/09/15 00:06:31;;;;;;;15.48;11.52;;;14.30;99.90;;;;;;5052417;28;20398;-84
2021/09/15 00:08:56;;;;;;;12.73;11.43;;;14.30;99.90;;;;;;5052419;28;20461;-85
2021/09/15 00:11:23;;;;;;;12.60;11.40;;;14.30;99.90;;;;;;5070936;28;20747;-86
2021/09/15 00:13:48;;;;;;;12.40;11.02;;;14.30;99.90;;;;;;5052336;28;20887;-84
2021/09/15 00:16:14;;;;;;;12.90;10.77;;;14.30;99.90;;;;;;5070621;28;20386;-84
2021/09/15 00:18:40;;;;;;;12.75;11.27;;;14.20;99.90;;;;;;5052547;28;20374;-86
2021/09/15 00:21:05;;;;;;;13.13;11.07;;;14.30;99.90;;;;;;5052520;28;20701;-84
2021/09/15 00:23:31;;;;;;;12.60;11.10;;;14.30;99.90;;;;;;5070498;28;20398;-86
2021/09/15 00:25:57;;;;;;;12.90;11.60;;;14.30;99.90;;;;;;5052913;28;21271;-86
2021/09/15 00:28:22;;;;;;;13.40;12.10;;;14.20;99.90;;;;;;5070995;28;20381;-85
2021/09/15 00:30:48;;;;;;;13.70;11.57;;;14.20;99.90;;;;;;5052301;28;20744;-84
2021/09/15 00:33:13;;;;;;;12.63;11.33;;;14.20;99.90;;;;;;5052776;28;20378;-85
2021/09/15 00:35:39;;;;;;;14.00;11.93;;;14.30;99.90;;;;;;5070515;28;20382;-84
2021/09/15 00:38:05;;;;;;;13.13;11.43;;;14.20;99.90;;;;;;5070214;28;20530;-85
2021/09/15 00:40:30;;;;;;;13.63;11.73;;;14.40;99.90;;;;;;5052537;28;20393;-84
2021/09/15 00:42:56;;;;;;;13.15;11.85;;;14.40;99.90;;;;;;5069768;28;20391;-83
2021/09/15 00:45:22;;;;;;;13.30;11.67;;;14.30;99.90;;;;;;5052415;28;20381;-83
2021/09/15 00:47:47;;;;;;;13.67;11.50;;;14.30;99.90;;;;;;5069676;28;20931;-86
2021/09/15 00:50:14;;;;;;;13.60;12.20;;;14.30;99.90;;;;;;5051922;28;20915;-84
2021/09/15 00:52:39;;;;;;;13.60;12.07;;;14.40;99.90;;;;;;5051620;28;20462;-83
2021/09/15 00:55:05;;;;;;;13.10;11.70;;;14.40;99.90;;;;;;5069572;28;20527;-86
2021/09/15 00:57:31;;;;;;;14.55;12.85;;;14.40;99.90;;;;;;5069733;28;20496;-84
2021/09/15 00:59:57;;;;;;;13.40;11.93;;;14.40;99.90;;;;;;5069879;28;20406;-85
2021/09/15 01:02:22;;;;;;;13.95;12.52;;;14.50;99.90;;;;;;5070017;28;20883;-84
2021/09/15 01:04:48;;;;;;;13.30;11.53;;;14.60;99.90;;;;;;5069510;28;20378;-83
2021/09/15 01:07:14;;;;;;;14.37;12.00;;;14.60;99.90;;;;;;5051710;28;20887;-84
2021/09/15 01:09:40;;;;;;;13.38;12.07;;;14.60;99.90;;;;;;5069537;28;20378;-84
2021/09/15 01:12:10;;;;;;;13.80;12.30;;;14.60;99.90;;;;;;5069219;28;20374;-84
2021/09/15 01:14:38;;;;;;;13.55;12.15;;;14.60;99.90;;;;;;5061753;28;20464;-85
2021/09/15 01:17:04;;;;;;;14.80;12.02;;;14.60;99.90;;;;;;5068965;28;20374;-84
2021/09/15 01:19:29;;;;;;;15.13;13.18;;;14.60;99.90;;;;;;5069454;28;20420;-84
2021/09/15 01:21:56;;;;;;;15.97;12.77;;;14.50;99.90;;;;;;5069314;28;20378;-82
2021/09/15 01:24:23;;;;;;;14.20;12.70;;;14.50;99.90;;;;;;5069675;28;20385;-82
2021/09/15 01:26:50;;;;;;;16.17;13.00;;;14.40;99.90;;;;;;5069154;28;20389;-83
2021/09/15 01:29:19;;;;;;;14.88;12.50;;;14.40;99.90;;;;;;5069776;28;20420;-83
2021/09/15 01:32:15;;;;;;;14.10;12.80;;;14.40;99.90;;;;;;5069000;28;20475;-84
2021/09/15 01:34:51;;;;;;;15.30;13.38;;;14.30;99.90;;;;;;5056868;28;20390;-82
2021/09/15 01:37:17;;;;;;;14.75;13.35;;;14.30;99.90;;;;;;5050970;28;20386;-82
2021/09/15 01:39:43;;;;;;;15.50;13.82;;;14.40;99.90;;;;;;5069033;28;20385;-82
2021/09/15 01:42:10;;;;;;;14.50;13.10;;;14.40;99.90;;;;;;5068937;28;20382;-83
2021/09/15 01:44:46;;;;;;;15.10;13.45;;;14.40;99.90;;;;;;5068924;28;20779;-84
2021/09/15 01:47:16;;;;;;;16.63;14.02;;;14.40;99.90;;;;;;5068425;28;20377;-82
2021/09/15 01:49:43;;;;;;;15.07;13.48;;;14.40;99.90;;;;;;5051334;28;20379;-84
2021/09/15 01:52:11;;;;;;;15.73;14.13;;;14.40;99.90;;;;;;5069417;28;20461;-83
2021/09/15 01:54:37;;;;;;;15.93;14.32;;;14.40;99.90;;;;;;5042834;28;20426;-83
2021/09/15 01:57:03;;;;;;;16.40;14.53;;;14.50;99.90;;;;;;5050662;28;20381;-83
2021/09/15 01:59:29;;;;;;;15.57;14.07;;;14.60;99.90;;;;;;5069280;28;20404;-83
2021/09/15 02:01:54;;;;;;;16.17;14.17;;;14.60;99.90;;;;;;5051375;28;20390;-83
2021/09/15 02:04:20;;;;;;;15.70;14.10;;;14.60;99.90;;;;;;5051238;28;20474;-81
2021/09/15 02:06:46;;;;;;;15.38;13.77;;;14.70;99.90;;;;;;5069414;28;20724;-84
2021/09/15 02:09:11;;;;;;;15.33;13.83;;;14.70;99.90;;;;;;5069091;28;20456;-82
2021/09/15 02:11:37;;;;;;;15.85;14.35;;;14.80;99.90;;;;;;5069339;28;21177;-84
2021/09/15 02:14:04;;;;;;;15.75;14.15;;;14.80;99.90;;;;;;5069745;28;20371;-83
2021/09/15 02:16:30;;;;;;;15.85;14.35;;;14.90;99.90;;;;;;5051039;28;20381;-84
2021/09/15 02:18:56;;;;;;;15.52;13.93;;;14.90;99.90;;;;;;5068945;28;20843;-83
2021/09/15 02:21:21;;;;;;;16.08;14.57;;;14.90;99.90;;;;;;5051338;28;20365;-83
2021/09/15 02:23:47;;;;;;;16.07;14.47;;;14.90;99.90;;;;;;5050434;28;20394;-85
2021/09/15 02:26:14;;;;;;;18.47;14.73;;;15.00;99.90;;;;;;5071823;28;20401;-82
2021/09/15 02:28:40;;;;;;;16.30;14.50;;;15.00;99.90;;;;;;5054349;28;20713;-81
2021/09/15 02:31:06;;;;;;;15.52;13.93;;;15.00;99.90;;;;;;5054660;28;20382;-83
2021/09/15 02:33:33;;;;;;;16.63;14.83;;;15.00;99.90;;;;;;5073087;28;20947;-82
2021/09/15 02:35:59;;;;;;;16.15;14.45;;;15.00;99.90;;;;;;5054097;28;20375;-83
2021/09/15 02:38:24;;;;;;;16.88;15.15;;;15.10;99.90;;;;;;5072738;28;20458;-82
2021/09/15 02:40:50;;;;;;;17.33;15.63;;;15.10;99.90;;;;;;5072088;28;20457;-83
2021/09/15 02:43:16;;;;;;;18.47;16.00;;;15.10;99.90;;;;;;5071967;28;20433;-83
2021/09/15 02:45:41;;;;;;;17.23;15.43;;;15.10;99.90;;;;;;5072044;28;20855;-84
2021/09/15 02:48:07;;;;;;;17.13;15.30;;;15.10;99.90;;;;;;5071858;28;20471;-83
2021/09/15 02:50:33;;;;;;;17.50;15.77;;;15.10;99.90;;;;;;5072129;28;20378;-82
2021/09/15 02:52:59;;;;;;;17.35;15.65;;;15.10;99.90;;;;;;5071901;28;20705;-85
2021/09/15 02:55:25;;;;;;;17.85;16.02;;;15.20;99.90;;;;;;5072161;28;20459;-83
2021/09/15 02:57:51;;;;;;;17.17;15.48;;;15.20;99.90;;;;;;5071581;28;20382;-82
2021/09/15 03:00:17;;;;;;;18.30;16.63;;;15.30;99.90;;;;;;5071914;28;20378;-84
2021/09/15 03:02:43;;;;;;;17.73;15.83;;;15.30;99.90;;;;;;5053315;28;20401;-83
2021/09/15 03:05:09;;;;;;;17.77;15.88;;;15.40;99.90;;;;;;5071773;28;20374;-82
2021/09/15 03:07:35;;;;;;;18.95;16.98;;;15.40;99.90;;;;;;5053347;28;20386;-82
2021/09/15 03:10:00;;;;;;;18.77;16.67;;;15.50;99.90;;;;;;5053650;28;20377;-83
2021/09/15 03:12:26;;;;;;;17.95;16.15;;;15.50;99.90;;;;;;5053644;28;20381;-84
2021/09/15 03:14:52;;;;;;;17.92;16.10;;;15.50;99.90;;;;;;5071700;28;20375;-83
2021/09/15 03:17:17;;;;;;;18.10;16.20;;;15.60;99.90;;;;;;5053206;28;20886;-83
2021/09/15 03:19:43;;;;;;;18.70;16.88;;;15.50;99.90;;;;;;5071207;28;20374;-84
2021/09/15 03:22:09;;;;;;;18.50;16.70;;;15.60;99.90;;;;;;5053691;28;20378;-83
2021/09/15 03:24:34;;;;;;;19.75;17.65;;;15.70;99.90;;;;;;5071469;28;20378;-82
2021/09/15 03:27:03;;;;;;;18.13;16.42;;;15.70;99.90;;;;;;5071128;28;20432;-83
2021/09/15 03:29:30;;;;;;;18.40;16.80;;;15.70;99.90;;;;;;5071242;28;20404;-83
2021/09/15 03:31:56;;;;;;;19.17;17.17;;;15.80;99.90;;;;;;5053348;28;20880;-82
2021/09/15 03:34:22;;;;;;;19.57;17.53;;;15.80;99.90;;;;;;5053291;28;20378;-85
2021/09/15 03:36:47;;;;;;;18.63;16.80;;;15.80;99.90;;;;;;5085728;28;20386;-83
2021/09/15 03:39:14;;;;;;;19.10;17.30;;;15.80;99.90;;;;;;5053762;28;20375;-83
2021/09/15 03:41:40;;;;;;;19.38;17.55;;;15.90;99.90;;;;;;5053268;28;20860;-83
2021/09/15 03:44:06;;;;;;;18.52;16.58;;;15.90;99.90;;;;;;5071828;28;20413;-82
2021/09/15 03:46:31;;;;;;;20.93;16.87;;;16.00;99.90;;;;;;5071954;28;20898;-83
2021/09/15 03:48:57;;;;;;;19.20;16.63;;;16.10;99.90;;;;;;5053372;28;20439;-85
2021/09/15 03:51:22;;;;;;;17.90;16.20;;;16.10;99.90;;;;;;5071599;28;20768;-83
2021/09/15 03:53:49;;;;;;;18.08;16.02;;;16.10;99.90;;;;;;5053932;28;20378;-83
2021/09/15 03:56:15;;;;;;;16.90;15.30;;;16.20;99.90;;;;;;5071674;28;20378;-84
2021/09/15 03:58:40;;;;;;;16.47;14.97;;;16.30;99.90;;;;;;5071039;28;20371;-83
2021/09/15 04:01:06;;;;;;;17.07;15.47;;;16.30;99.90;;;;;;5071922;28;20377;-84
2021/09/15 04:03:32;;;;;;;18.60;16.65;;;16.30;99.90;;;;;;5052671;28;20492;-83
2021/09/15 04:05:58;;;;;;;18.30;16.60;;;16.30;99.90;;;;;;5070242;28;20508;-82
2021/09/15 04:08:24;;;;;;;17.87;16.17;;;16.30;99.90;;;;;;5070725;28;20858;-84
2021/09/15 04:10:49;;;;;;;20.95;17.95;;;16.30;99.90;;;;;;5052435;28;20390;-82
2021/09/15 04:13:15;;;;;;;18.90;16.97;;;16.30;99.90;;;;;;5052466;28;20558;-83
2021/09/15 04:15:41;;;;;;;18.17;16.48;;;16.30;99.90;;;;;;5070857;28;20417;-83
2021/09/15 04:18:06;;;;;;;19.70;17.83;;;16.20;99.90;;;;;;5070889;28;20366;-82
2021/09/15 04:20:32;;;;;;;19.08;17.08;;;16.30;99.90;;;;;;5070454;28;20479;-82
2021/09/15 04:22:58;;;;;;;19.05;17.25;;;16.30;99.90;;;;;;5070413;28;20401;-84
2021/09/15 04:33:38;;;;;;;20.07;18.13;;;16.40;99.90;;;;;;5036962;28;20378;-83
2021/09/15 04:36:04;;;;;;;19.98;17.88;;;16.30;99.90;;;;;;5053699;28;20459;-83
2021/09/15 04:38:29;;;;;;;19.63;17.63;;;16.40;99.90;;;;;;5051645;28;20386;-83
2021/09/15 04:40:55;;;;;;;19.73;17.73;;;16.30;99.90;;;;;;5053362;28;20366;-83
2021/09/15 04:43:21;;;;;;;18.85;17.02;;;16.40;99.90;;;;;;5036437;28;20434;-83
2021/09/15 04:45:46;;;;;;;19.33;17.33;;;16.40;99.90;;;;;;5052132;28;20467;-85
2021/09/15 04:48:12;;;;;;;19.57;17.47;;;16.40;99.90;;;;;;5051356;28;20374;-82
2021/09/15 04:50:38;;;;;;;19.08;17.27;;;16.50;99.90;;;;;;5052528;28;20377;-82
2021/09/15 04:53:03;;;;;;;19.47;17.67;;;16.40;99.90;;;;;;5052345;28;20415;-83
2021/09/15 04:55:31;;;;;;;19.50;17.38;;;16.40;99.90;;;;;;5070054;28;20392;-83
2021/09/15 04:57:57;;;;;;;18.95;17.02;;;16.40;99.90;;;;;;5069078;28;20859;-84
2021/09/15 05:00:23;;;;;;;19.35;17.45;;;16.50;99.90;;;;;;5052581;28;20388;-83
2021/09/15 05:02:48;;;;;;;18.97;17.27;;;16.50;99.90;;;;;;5070205;28;20405;-83
2021/09/15 05:05:14;;;;;;;19.45;17.55;;;16.50;99.90;;;;;;5052218;28;20384;-83
2021/09/15 05:07:40;;;;;;;19.37;17.67;;;16.60;99.90;;;;;;5085117;28;20883;-83
2021/09/15 05:10:06;;;;;;;19.67;17.70;;;16.70;99.90;;;;;;5053535;28;20382;-85
2021/09/15 05:12:31;;;;;;;19.13;17.33;;;16.70;99.90;;;;;;5070096;28;20382;-84
2021/09/15 05:14:58;;;;;;;20.05;18.02;;;16.70;99.90;;;;;;5051537;28;20922;-83
2021/09/15 05:17:24;;;;;;;20.08;18.05;;;16.70;99.90;;;;;;5050967;28;20389;-82
2021/09/15 05:19:49;;;;;;;18.98;17.17;;;16.70;99.90;;;;;;5053688;28;20385;-83
2021/09/15 05:22:15;;;;;;;19.17;17.17;;;16.70;99.90;;;;;;5069232;28;20693;-82
2021/09/15 05:24:41;;;;;;;20.08;18.08;;;16.70;99.90;;;;;;5051593;28;20735;-84
2021/09/15 05:27:07;;;;;;;19.95;17.95;;;16.70;99.90;;;;;;5050684;28;20382;-84
2021/09/15 05:29:33;;;;;;;21.45;16.83;;;16.60;99.90;;;;;;5073320;28;20402;-84
2021/09/15 05:31:59;;;;;;;20.23;17.95;;;16.80;99.90;;;;;;5084489;28;20903;-86
2021/09/15 05:34:25;;;;;;;20.13;18.13;;;16.70;99.90;;;;;;5072751;28;20484;-85
2021/09/15 05:36:50;;;;;;;19.30;17.40;;;16.80;99.90;;;;;;5080266;28;20419;-85
2021/09/15 05:39:16;;;;;;;19.80;17.80;;;16.80;99.90;;;;;;5078015;28;20378;-84
2021/09/15 05:41:42;;;;;;;17.75;16.08;;;16.80;99.90;;;;;;5073634;28;20438;-84
2021/09/15 05:44:07;;;;;;;18.27;16.43;;;17.00;99.90;;;;;;5079135;28;20411;-84
2021/09/15 05:46:33;;;;;;;18.52;16.73;;;17.00;99.90;;;;;;5077837;28;20378;-85
2021/09/15 05:48:58;;;;;;;19.77;17.50;;;17.10;99.90;;;;;;5059738;28;20716;-85
2021/09/15 05:51:24;;;;;;;19.30;17.50;;;17.20;99.90;;;;;;5060892;28;20378;-84
2021/09/15 05:53:52;;;;;;;18.17;16.20;;;17.20;99.90;;;;;;5073592;28;20453;-86
2021/09/15 05:56:18;;;;;;;18.90;16.87;;;17.30;99.90;;;;;;5078165;28;20872;-83
2021/09/15 05:58:44;;;;;;;18.53;16.53;;;17.30;99.90;;;;;;5087442;28;20372;-84
2021/09/15 06:01:09;;;;;;;22.97;17.07;;;17.30;99.90;;;;;;5093632;28;20368;-84
2021/09/15 06:03:35;;;;;;;19.15;16.92;;;17.30;99.90;;;;;;5074770;28;20503;-82
2021/09/15 06:06:00;;;;;;;18.97;16.97;;;17.30;99.90;;;;;;5093517;28;20383;-84
2021/09/15 06:08:26;;;;;;;18.58;16.88;;;17.50;99.90;;;;;;5093630;28;20932;-83
2021/09/15 06:10:51;;;;;;;17.30;15.60;;;17.50;99.90;;;;;;5076640;28;20917;-82
2021/09/15 06:13:17;;;;;;;18.23;16.42;;;17.60;99.90;;;;;;5069217;28;20424;-83
2021/09/15 06:15:42;;;;;;;17.93;15.83;;;17.60;99.90;;;;;;5076554;28;20415;-83
2021/09/15 06:18:09;;;;;;;29.80;16.63;;;17.70;99.90;;;;;;5101320;28;20375;-82
2021/09/15 06:20:35;;;;;;;28.13;16.42;;;17.70;99.90;;;;;;5057835;28;20382;-85
2021/09/15 06:23:00;;;;;;;16.90;15.10;;;17.70;99.90;;;;;;5054681;28;20484;-84
2021/09/15 06:25:27;;;;;;;16.97;15.17;;;17.80;99.90;;;;;;5071532;28;20962;-83
2021/09/15 06:27:54;;;;;;;17.23;15.60;;;17.80;99.90;;;;;;5072239;28;20859;-86
2021/09/15 06:30:20;;;;;;;16.48;14.93;;;17.80;99.90;;;;;;5055839;28;20394;-85
2021/09/15 06:32:46;;;;;;;17.05;15.35;;;18.00;99.90;;;;;;5067459;28;20380;-83
2021/09/15 06:35:12;;;;;;;17.73;16.13;;;18.00;99.90;;;;;;5092819;28;20379;-84
2021/09/15 06:37:38;;;;;;;17.85;16.17;;;18.00;99.90;;;;;;5072957;28;20842;-83
2021/09/15 06:40:04;;;;;;;24.52;15.05;;;18.00;99.90;;;;;;5070613;28;20370;-83
2021/09/15 06:42:30;;;;;;;15.98;14.50;;;18.10;99.90;;;;;;5065981;28;20410;-84
2021/09/15 06:44:55;;;;;;;15.30;13.80;;;18.40;99.90;;;;;;5077742;28;20379;-80
2021/09/15 06:47:22;;;;;;;15.37;13.87;;;18.60;99.90;;;;;;5094257;28;20394;-81
2021/09/15 06:49:48;;;;;;;15.15;13.60;;;18.90;99.90;;;;;;5069973;28;20399;-85
2021/09/15 06:52:13;;;;;;;16.35;14.23;;;19.20;99.90;;;;;;5073726;28;20376;-83
2021/09/15 06:54:39;;;;;;;15.50;13.85;;;19.30;99.90;;;;;;5091392;28;20449;-81
2021/09/15 06:57:04;;;;;;;14.97;13.57;;;19.40;99.90;;;;;;5094636;28;20376;-81
2021/09/15 06:59:31;;;;;;;14.63;13.10;;;19.50;99.90;;;;;;5092968;28;20391;-83
2021/09/15 07:01:57;;;;;;;16.67;13.15;;;19.60;99.90;;;;;;5092084;28;20388;-82
2021/09/15 07:04:22;;;;;;;31.03;14.60;;;19.70;99.90;;;;;;5073776;28;20414;-81
2021/09/15 07:06:48;;;;;;;18.23;12.88;;;19.90;99.90;;;;;;5092902;28;20400;-84
2021/09/15 07:09:13;;;;;;;13.63;12.33;;;20.10;99.90;;;;;;5093249;28;20407;-84
2021/09/15 07:11:40;;;;;;;13.50;11.98;;;20.40;99.90;;;;;;5091691;28;20381;-82
2021/09/15 07:14:06;;;;;;;14.02;12.43;;;20.40;99.90;;;;;;5076542;28;20474;-81
2021/09/15 07:16:33;;;;;;;16.43;12.63;;;20.40;99.90;;;;;;5092236;28;20854;-82
2021/09/15 07:18:59;;;;;;;13.40;11.07;;;20.60;99.90;;;;;;5072522;28;20380;-82
2021/09/15 07:21:25;;;;;;;17.00;12.10;;;20.90;99.90;;;;;;5091484;28;20388;-84
2021/09/15 07:23:51;;;;;;;13.70;11.20;;;21.00;99.90;;;;;;5069661;28;21238;-82
2021/09/15 07:26:16;;;;;;;12.93;11.63;;;21.10;99.90;;;;;;5091034;28;20773;-84
2021/09/15 07:28:42;;;;;;;12.53;11.23;;;21.30;99.90;;;;;;5091185;28;20369;-83
2021/09/15 07:31:08;;;;;;;13.15;10.95;;;21.70;99.90;;;;;;5072721;28;20944;-83
2021/09/15 07:33:33;;;;;;;13.63;11.53;;;21.80;99.90;;;;;;5091164;28;20380;-84
2021/09/15 07:36:03;;;;;;;14.47;10.73;;;21.90;99.90;;;;;;5072847;28;20384;-82
2021/09/15 07:38:30;;;;;;;14.90;10.73;;;22.00;99.90;;;;;;5091334;28;20441;-83
2021/09/15 07:40:56;;;;;;;11.52;10.23;;;22.20;99.90;;;;;;5090627;28;20392;-84
2021/09/15 07:43:22;;;;;;;12.50;10.40;;;22.40;99.90;;;;;;5072543;28;20898;-85
2021/09/15 07:45:48;;;;;;;11.77;10.07;;;22.60;99.90;;;;;;5072602;28;20425;-82
2021/09/15 07:48:14;;;;;;;11.38;10.20;;;22.80;99.90;;;;;;5072256;28;20420;-85
2021/09/15 07:50:39;;;;;;;11.20;9.20;;;23.00;99.90;;;;;;5091427;28;20380;-84
2021/09/15 07:53:05;;;;;;;11.07;9.23;;;23.30;99.90;;;;;;5072624;28;20396;-82
2021/09/15 07:55:31;;;;;;;11.50;9.50;;;23.60;99.90;;;;;;5088759;28;20885;-85
2021/09/15 07:57:56;;;;;;;36.42;11.55;;;23.80;99.90;;;;;;5090091;28;20807;-81
2021/09/15 08:00:22;;;;;;;19.93;9.90;;;23.70;99.90;;;;;;5091319;28;20442;-85
2021/09/15 08:02:48;;;;;;;12.50;9.43;;;24.10;99.90;;;;;;5091040;28;20861;-83
2021/09/15 08:05:15;;;;;;;44.67;12.00;;;24.40;99.90;;;;;;5090707;28;20976;-82
2021/09/15 08:07:40;;;;;;;14.23;9.68;;;24.80;99.90;;;;;;5089719;28;20373;-83
2021/09/15 08:10:07;;;;;;;9.98;8.90;;;24.80;99.90;;;;;;5071994;28;20842;-84
2021/09/15 08:12:32;;;;;;;12.20;9.32;;;24.90;99.90;;;;;;5089731;28;20388;-82
2021/09/15 08:14:58;;;;;;;11.57;9.10;;;24.90;99.90;;;;;;5088569;28;20393;-83
2021/09/15 08:17:23;;;;;;;16.83;9.90;;;25.00;99.90;;;;;;5088976;28;20379;-84
2021/09/15 08:19:52;;;;;;;10.03;8.70;;;25.10;99.90;;;;;;5089113;28;20384;-83
2021/09/15 08:22:17;;;;;;;10.77;9.68;;;25.00;99.90;;;;;;5088742;28;20377;-84
2021/09/15 08:24:43;;;;;;;10.40;9.27;;;24.70;99.90;;;;;;5089107;28;20384;-83
2021/09/15 08:27:08;;;;;;;9.73;8.68;;;24.30;99.90;;;;;;5088763;28;20384;-84
2021/09/15 08:29:36;;;;;;;10.20;8.73;;;24.10;99.90;;;;;;5071750;28;21063;-83
2021/09/15 08:32:01;;;;;;;20.13;10.18;;;24.20;99.90;;;;;;5071270;28;20430;-82
2021/09/15 08:34:27;;;;;;;15.67;8.97;;;24.40;99.90;;;;;;5089162;28;20452;-80
2021/09/15 08:36:53;;;;;;;11.27;9.13;;;24.40;99.90;;;;;;5088932;28;20877;-83
2021/09/15 08:39:18;;;;;;;11.50;9.52;;;24.40;99.90;;;;;;5071783;28;20412;-83
2021/09/15 08:41:50;;;;;;;11.23;8.73;;;24.40;99.90;;;;;;5072941;28;20381;-84
2021/09/15 08:44:16;;;;;;;11.55;9.25;;;24.20;99.90;;;;;;5075692;28;20531;-83
2021/09/15 08:46:44;;;;;;;17.47;9.60;;;24.20;99.90;;;;;;5089813;28;20471;-82
2021/09/15 08:49:10;;;;;;;11.23;9.32;;;24.20;99.90;;;;;;5105597;28;20941;-84
2021/09/15 08:51:37;;;;;;;10.63;9.25;;;24.20;99.90;;;;;;5092676;28;20577;-82
2021/09/15 08:54:04;;;;;;;13.93;9.18;;;24.00;99.90;;;;;;5089606;28;20847;-83
2021/09/15 08:56:30;;;;;;;9.73;8.82;;;24.00;99.90;;;;;;5072582;28;20400;-82
2021/09/15 08:58:56;;;;;;;10.48;8.80;;;24.00;99.90;;;;;;5095748;28;20387;-82
2021/09/15 09:01:25;;;;;;;14.13;9.13;;;23.90;99.90;;;;;;5081995;28;20491;-83
2021/09/15 09:03:53;;;;;;;10.60;8.90;;;23.90;99.90;;;;;;5073950;28;20383;-85
2021/09/15 09:06:21;;;;;;;9.98;8.98;;;23.70;99.90;;;;;;5088355;28;20538;-83
2021/09/15 09:08:57;;;;;;;10.75;8.70;;;23.60;99.90;;;;;;5090617;28;20387;-84
2021/09/15 09:11:26;;;;;;;10.05;9.10;;;23.60;99.90;;;;;;5057501;28;20887;-84
2021/09/15 09:13:55;;;;;;;11.02;8.98;;;23.80;99.90;;;;;;5076002;28;20491;-82
2021/09/15 09:16:36;;;;;;;9.38;7.80;;;23.90;99.90;;;;;;5086023;28;20412;-83
2021/09/15 09:19:04;;;;;;;9.43;8.33;;;24.10;99.90;;;;;;5067206;28;20413;-84
2021/09/15 09:21:35;;;;;;;17.77;8.82;;;24.40;99.90;;;;;;5084781;28;20935;-83
2021/09/15 09:24:04;;;;;;;9.40;7.72;;;24.50;99.90;;;;;;5072667;28;20390;-83
2021/09/15 09:26:54;;;;;;;10.07;7.97;;;24.40;99.90;;;;;;5064181;28;20538;-83
2021/09/15 09:29:29;;;;;;;14.40;8.45;;;24.40;99.90;;;;;;5068757;28;20446;-84
2021/09/15 09:32:08;;;;;;;8.93;7.97;;;24.30;99.90;;;;;;5075095;28;20391;-84
2021/09/15 09:34:47;;;;;;;9.43;8.43;;;24.00;99.90;;;;;;5085742;28;20415;-83
2021/09/15 09:37:19;;;;;;;10.07;8.50;;;24.00;99.90;;;;;;5086455;28;20385;-85
2021/09/15 09:39:57;;;;;;;11.70;8.10;;;23.90;99.90;;;;;;5095107;28;20363;-82
2021/09/15 09:42:23;;;;;;;11.55;8.57;;;23.80;99.90;;;;;;5074506;28;20404;-84
2021/09/15 09:45:22;;;;;;;30.48;10.57;;;23.70;99.90;;;;;;5086307;28;20432;-84
2021/09/15 09:47:48;;;;;;;10.50;8.10;;;23.80;99.90;;;;;;5031709;28;20498;-83
2021/09/15 09:50:19;;;;;;;10.05;8.27;;;23.90;99.90;;;;;;5087941;28;20467;-83
2021/09/15 09:53:02;;;;;;;8.88;7.97;;;24.10;99.90;;;;;;5076648;28;20400;-85
2021/09/15 09:55:34;;;;;;;9.70;8.13;;;24.30;99.90;;;;;;5076705;28;20456;-83
2021/09/15 09:58:03;;;;;;;10.52;8.00;;;24.60;99.90;;;;;;5067280;28;20422;-84
2021/09/15 10:00:28;;;;;;;10.87;8.77;;;24.70;99.90;;;;;;5067230;28;20403;-84
2021/09/15 10:02:54;;;;;;;9.40;8.07;;;24.80;99.90;;;;;;5076415;28;20367;-84
2021/09/15 10:05:22;;;;;;;8.63;7.80;;;25.00;99.90;;;;;;5092802;28;20392;-84
2021/09/15 10:07:49;;;;;;;8.25;7.45;;;25.10;99.90;;;;;;5089429;28;20445;-84
2021/09/15 10:10:16;;;;;;;10.55;7.65;;;25.50;99.90;;;;;;5069897;28;20403;-85
2021/09/15 10:12:44;;;;;;;8.02;7.13;;;25.80;99.90;;;;;;5052095;28;20436;-84
2021/09/15 10:15:11;;;;;;;12.33;8.10;;;26.30;99.90;;;;;;5049545;28;20388;-84
2021/09/15 10:17:40;;;;;;;17.55;8.55;;;26.40;99.90;;;;;;5072248;28;20390;-83
2021/09/15 10:20:08;;;;;;;9.00;7.70;;;26.30;99.90;;;;;;5050508;28;20760;-82
2021/09/15 10:22:41;;;;;;;8.23;7.43;;;26.10;99.90;;;;;;5069178;28;20397;-84
2021/09/15 10:25:09;;;;;;;12.80;7.95;;;25.90;99.90;;;;;;5050682;28;20382;-84
2021/09/15 10:28:04;;;;;;;11.38;8.52;;;25.80;99.90;;;;;;5068010;28;20462;-82
2021/09/15 10:30:58;;;;;;;8.90;8.00;;;25.50;99.90;;;;;;5050488;28;20390;-84
2021/09/15 10:33:36;;;;;;;9.25;8.00;;;25.40;99.90;;;;;;5050106;28;20510;-84
2021/09/15 10:36:16;;;;;;;11.30;8.30;;;25.30;99.90;;;;;;5050506;28;20942;-83
2021/09/15 10:38:52;;;;;;;12.27;8.50;;;25.20;99.90;;;;;;5067464;28;20428;-83
2021/09/15 10:41:33;;;;;;;9.57;8.13;;;25.20;99.90;;;;;;5082666;28;20391;-85
2021/09/15 10:44:07;;;;;;;20.73;9.77;;;25.20;99.90;;;;;;5070389;28;20403;-84
2021/09/15 10:46:33;;;;;;;9.02;7.78;;;25.20;99.90;;;;;;5090603;28;20370;-84
2021/09/15 10:49:21;;;;;;;9.30;7.93;;;25.30;99.90;;;;;;5073993;28;20373;-84
2021/09/15 10:52:07;;;;;;;23.43;10.07;;;25.40;99.90;;;;;;5073664;28;20396;-85
2021/09/15 10:54:55;;;;;;;11.45;7.90;;;25.40;99.90;;;;;;5074578;28;20557;-82
2021/09/15 10:57:27;;;;;;;22.60;8.93;;;25.30;99.90;;;;;;5072629;28;20387;-83
2021/09/15 10:59:56;;;;;;;9.13;8.07;;;25.30;99.90;;;;;;5092094;28;20393;-83
2021/09/15 11:02:34;;;;;;;9.65;7.57;;;25.30;99.90;;;;;;5091786;28;20364;-84
2021/09/15 11:05:26;;;;;;;9.57;8.13;;;25.50;99.90;;;;;;5092152;28;20445;-83
2021/09/15 11:07:53;;;;;;;45.15;12.68;;;25.60;99.90;;;;;;5078790;28;20469;-84
2021/09/15 11:10:35;;;;;;;10.32;7.65;;;25.60;99.90;;;;;;5089935;28;20452;-83
2021/09/15 11:13:03;;;;;;;10.88;8.20;;;25.40;99.90;;;;;;5118650;28;20398;-85
2021/09/15 11:15:31;;;;;;;9.20;8.20;;;25.40;99.90;;;;;;5089070;28;20400;-84
2021/09/15 11:17:57;;;;;;;38.00;10.93;;;25.40;99.90;;;;;;5071816;28;20376;-84
2021/09/15 11:20:25;;;;;;;9.80;8.38;;;25.60;99.90;;;;;;5070431;28;20439;-83
2021/09/15 11:22:52;;;;;;;15.10;8.02;;;25.40;99.90;;;;;;5087465;28;20407;-83
2021/09/15 11:25:27;;;;;;;8.60;7.80;;;25.60;99.90;;;;;;5089139;28;20372;-84
2021/09/15 11:28:08;;;;;;;8.57;7.70;;;25.80;99.90;;;;;;5088199;28;20391;-83
2021/09/15 11:30:37;;;;;;;10.32;8.75;;;25.80;99.90;;;;;;5088787;28;21030;-83
2021/09/15 11:33:02;;;;;;;10.57;8.18;;;25.80;99.90;;;;;;5094494;28;20394;-83
2021/09/15 11:35:31;;;;;;;10.07;8.30;;;25.80;99.90;;;;;;5098038;28;20392;-83
2021/09/15 11:37:57;;;;;;;10.68;8.25;;;25.90;99.90;;;;;;5095195;28;20498;-84
2021/09/15 11:40:28;;;;;;;12.13;9.20;;;26.00;99.90;;;;;;5087482;28;20456;-84
2021/09/15 11:42:55;;;;;;;11.20;8.55;;;25.90;99.90;;;;;;5069847;28;20397;-84
2021/09/15 11:45:23;;;;;;;10.00;9.00;;;25.90;99.90;;;;;;5088368;28;20488;-83
2021/09/15 11:47:54;;;;;;;10.33;8.20;;;25.80;99.90;;;;;;5090555;28;20805;-84
2021/09/15 11:50:21;;;;;;;9.18;8.30;;;25.80;99.90;;;;;;5087985;28;20451;-84
2021/09/15 11:52:52;;;;;;;9.20;8.25;;;25.80;99.90;;;;;;5070711;28;20480;-84
2021/09/15 11:55:18;;;;;;;10.35;8.20;;;25.80;99.90;;;;;;5072538;28;20381;-83
2021/09/15 11:57:48;;;;;;;12.77;9.03;;;25.80;99.90;;;;;;5070469;28;20387;-85
2021/09/15 12:00:15;;;;;;;20.93;9.80;;;25.70;99.90;;;;;;5091158;28;20908;-83
2021/09/15 12:02:45;;;;;;;16.73;9.25;;;25.70;99.90;;;;;;5091564;28;20352;-84
2021/09/15 12:05:12;;;;;;;9.93;8.50;;;25.70;99.90;;;;;;5072530;28;20835;-84
2021/09/15 12:07:39;;;;;;;9.05;8.15;;;25.70;99.90;;;;;;5090865;28;20377;-83
2021/09/15 12:10:09;;;;;;;10.80;8.37;;;25.80;99.90;;;;;;5091035;28;20758;-84
2021/09/15 12:12:39;;;;;;;12.25;8.52;;;25.90;99.90;;;;;;5071295;28;20385;-83
2021/09/15 12:15:06;;;;;;;9.65;8.65;;;26.00;99.90;;;;;;5072458;28;20472;-82
2021/09/15 12:17:36;;;;;;;9.27;8.38;;;26.10;99.90;;;;;;5089013;28;20429;-84
2021/09/15 12:20:06;;;;;;;10.07;8.10;;;26.30;99.90;;;;;;5092948;28;20443;-82
2021/09/15 12:22:32;;;;;;;9.18;8.10;;;26.40;99.90;;;;;;5092489;28;20471;-83
2021/09/15 12:25:09;;;;;;;9.65;8.75;;;26.50;99.90;;;;;;5074027;28;20597;-84
2021/09/15 12:27:36;;;;;;;9.80;8.20;;;26.60;99.90;;;;;;5072661;28;20392;-85
2021/09/15 12:30:11;;;;;;;9.95;8.32;;;26.50;99.90;;;;;;5089151;28;20388;-83
2021/09/15 12:32:39;;;;;;;11.15;8.82;;;26.50;99.90;;;;;;5089621;28;20395;-82
2021/09/15 12:35:20;;;;;;;22.70;10.00;;;26.40;99.90;;;;;;5089646;28;20443;-84
2021/09/15 12:37:45;;;;;;;24.80;10.45;;;26.20;99.90;;;;;;5088494;28;20396;-82
2021/09/15 12:40:19;;;;;;;16.20;8.95;;;26.00;99.90;;;;;;5070312;28;20391;-85
2021/09/15 12:43:05;;;;;;;14.63;7.75;;;25.60;99.90;;;;;;5089817;28;20876;-84